sensor_id;sensor_type;location;lat;lon;timestamp;temperature;humidity
47845;DHT22;33605;48.822;8.796;2022-12-18T00:01:58;-5.80;25.10
47845;DHT22;33605;48.822;8.796;2022-12-18T00:04:27;-5.80;25.00
47845;DHT22;33605;48.822;8.796;2022-12-18T00:06:53;-5.90;24.90
47845;DHT22;33605;48.822;8.796;2022-12-18T00:09:19;-5.90;24.90
47845;DHT22;33605;48.822;8.796;2022-12-18T00:11:45;-5.90;25.00
47845;DHT22;33605;48.822;8.796;2022-12-18T00:14:12;-6.00;25.00
47845;DHT22;33605;48.822;8.796;2022-12-18T00:16:38;-6.00;25.10
47845;DHT22;33605;48.822;8.796;2022-12-18T00:19:04;-6.10;25.10
47845;DHT22;33605;48.822;8.796;2022-12-18T00:21:31;-6.10;25.20
47845;DHT22;33605;48.822;8.796;2022-12-18T00:23:59;-6.20;25.20
47845;DHT22;33605;48.822;8.796;2022-12-18T00:26:30;-6.20;25.20
47845;DHT22;33605;48.822;8.796;2022-12-18T00:29:14;-6.20;25.30
47845;DHT22;33605;48.822;8.796;2022-12-18T00:31:42;-6.30;25.20
47845;DHT22;33605;48.822;8.796;2022-12-18T00:34:10;-6.30;25.20
47845;DHT22;33605;48.822;8.796;2022-12-18T00:36:37;-6.30;25.30
47845;DHT22;33605;48.822;8.796;2022-12-18T00:39:04;-6.30;25.20
47845;DHT22;33605;48.822;8.796;2022-12-18T00:41:30;-6.30;25.30
47845;DHT22;33605;48.822;8.796;2022-12-18T00:44:16;-6.30;25.40
47845;DHT22;33605;48.822;8.796;2022-12-18T00:46:43;-6.40;25.30
47845;DHT22;33605;48.822;8.796;2022-12-18T00:49:09;-6.40;25.30
47845;DHT22;33605;48.822;8.796;2022-12-18T00:51:37;-6.40;25.30
47845;DHT22;33605;48.822;8.796;2022-12-18T00:54:03;-6.40;25.30
47845;DHT22;33605;48.822;8.796;2022-12-18T00:56:29;-6.40;25.40
47845;DHT22;33605;48.822;8.796;2022-12-18T00:58:55;-6.40;25.40
47845;DHT22;33605;48.822;8.796;2022-12-18T01:01:21;-6.40;25.30
47845;DHT22;33605;48.822;8.796;2022-12-18T01:03:47;-6.50;25.30
47845;DHT22;33605;48.822;8.796;2022-12-18T01:06:14;-6.50;25.30
47845;DHT22;33605;48.822;8.796;2022-12-18T01:08:39;-6.50;25.30
47845;DHT22;33605;48.822;8.796;2022-12-18T01:11:15;-6.60;25.30
47845;DHT22;33605;48.822;8.796;2022-12-18T01:13:41;-6.60;25.40
47845;DHT22;33605;48.822;8.796;2022-12-18T01:16:08;-6.60;25.40
47845;DHT22;33605;48.822;8.796;2022-12-18T01:18:34;-6.70;25.30
47845;DHT22;33605;48.822;8.796;2022-12-18T01:21:00;-6.70;25.40
47845;DHT22;33605;48.822;8.796;2022-12-18T01:23:26;-6.70;25.40
47845;DHT22;33605;48.822;8.796;2022-12-18T01:25:52;-6.70;25.40
47845;DHT22;33605;48.822;8.796;2022-12-18T01:28:18;-6.80;25.40
47845;DHT22;33605;48.822;8.796;2022-12-18T01:30:43;-6.80;25.40
47845;DHT22;33605;48.822;8.796;2022-12-18T01:33:09;-6.80;25.50
47845;DHT22;33605;48.822;8.796;2022-12-18T01:35:43;-6.80;25.50
47845;DHT22;33605;48.822;8.796;2022-12-18T01:38:08;-6.80;25.60
47845;DHT22;33605;48.822;8.796;2022-12-18T01:40:34;-6.80;25.60
47845;DHT22;33605;48.822;8.796;2022-12-18T01:43:00;-6.80;25.60
47845;DHT22;33605;48.822;8.796;2022-12-18T01:45:30;-6.80;25.60
47845;DHT22;33605;48.822;8.796;2022-12-18T01:48:04;-6.80;25.60
47845;DHT22;33605;48.822;8.796;2022-12-18T01:50:37;-6.80;25.60
47845;DHT22;33605;48.822;8.796;2022-12-18T01:53:17;-6.80;25.60
47845;DHT22;33605;48.822;8.796;2022-12-18T01:55:46;-6.80;25.70
47845;DHT22;33605;48.822;8.796;2022-12-18T01:58:12;-6.80;25.70
47845;DHT22;33605;48.822;8.796;2022-12-18T02:00:38;-6.80;25.70
47845;DHT22;33605;48.822;8.796;2022-12-18T02:03:04;-6.80;25.80
47845;DHT22;33605;48.822;8.796;2022-12-18T02:11:08;-6.90;25.90
47845;DHT22;33605;48.822;8.796;2022-12-18T02:14:00;-6.90;26.00
47845;DHT22;33605;48.822;8.796;2022-12-18T02:27:41;-6.70;26.60
47845;DHT22;33605;48.822;8.796;2022-12-18T02:30:07;-6.70;26.60
47845;DHT22;33605;48.822;8.796;2022-12-18T02:32:43;-6.70;26.60
47845;DHT22;33605;48.822;8.796;2022-12-18T02:35:17;-6.70;26.60
47845;DHT22;33605;48.822;8.796;2022-12-18T02:37:46;-6.60;26.70
47845;DHT22;33605;48.822;8.796;2022-12-18T02:40:14;-6.60;26.60
47845;DHT22;33605;48.822;8.796;2022-12-18T02:42:40;-6.60;26.60
47845;DHT22;33605;48.822;8.796;2022-12-18T02:45:06;-6.60;26.60
47845;DHT22;33605;48.822;8.796;2022-12-18T02:47:35;-6.60;26.50
47845;DHT22;33605;48.822;8.796;2022-12-18T02:50:07;-6.60;26.40
47845;DHT22;33605;48.822;8.796;2022-12-18T02:58:34;-6.50;26.40
47845;DHT22;33605;48.822;8.796;2022-12-18T03:03:46;-6.50;26.30
47845;DHT22;33605;48.822;8.796;2022-12-18T03:06:33;-6.50;26.40
47845;DHT22;33605;48.822;8.796;2022-12-18T03:09:06;-6.50;26.50
47845;DHT22;33605;48.822;8.796;2022-12-18T03:11:34;-6.50;26.60
47845;DHT22;33605;48.822;8.796;2022-12-18T03:14:21;-6.50;26.60
47845;DHT22;33605;48.822;8.796;2022-12-18T03:16:50;-6.50;26.70
47845;DHT22;33605;48.822;8.796;2022-12-18T03:19:21;-6.50;26.70
47845;DHT22;33605;48.822;8.796;2022-12-18T03:21:54;-6.50;26.80
47845;DHT22;33605;48.822;8.796;2022-12-18T03:24:21;-6.50;26.90
47845;DHT22;33605;48.822;8.796;2022-12-18T03:26:51;-6.50;26.90
47845;DHT22;33605;48.822;8.796;2022-12-18T03:32:01;-6.50;26.80
47845;DHT22;33605;48.822;8.796;2022-12-18T03:34:35;-6.40;26.80
47845;DHT22;33605;48.822;8.796;2022-12-18T03:37:03;-6.40;26.80
47845;DHT22;33605;48.822;8.796;2022-12-18T03:39:29;-6.40;26.80
47845;DHT22;33605;48.822;8.796;2022-12-18T03:52:52;-6.40;27.00
47845;DHT22;33605;48.822;8.796;2022-12-18T03:55:21;-6.40;27.10
47845;DHT22;33605;48.822;8.796;2022-12-18T03:57:48;-6.40;27.20
47845;DHT22;33605;48.822;8.796;2022-12-18T04:00:17;-6.40;27.30
47845;DHT22;33605;48.822;8.796;2022-12-18T04:02:45;-6.40;27.30
47845;DHT22;33605;48.822;8.796;2022-12-18T04:05:14;-6.40;27.30
47845;DHT22;33605;48.822;8.796;2022-12-18T04:07:41;-6.40;27.30
47845;DHT22;33605;48.822;8.796;2022-12-18T04:10:08;-6.40;27.30
47845;DHT22;33605;48.822;8.796;2022-12-18T04:12:37;-6.40;27.30
47845;DHT22;33605;48.822;8.796;2022-12-18T04:15:04;-6.40;27.30
47845;DHT22;33605;48.822;8.796;2022-12-18T04:17:30;-6.40;27.40
47845;DHT22;33605;48.822;8.796;2022-12-18T04:19:56;-6.40;27.40
47845;DHT22;33605;48.822;8.796;2022-12-18T04:22:21;-6.40;27.40
47845;DHT22;33605;48.822;8.796;2022-12-18T04:24:47;-6.40;27.50
47845;DHT22;33605;48.822;8.796;2022-12-18T04:27:13;-6.40;27.60
47845;DHT22;33605;48.822;8.796;2022-12-18T04:29:39;-6.40;27.60
47845;DHT22;33605;48.822;8.796;2022-12-18T04:32:04;-6.40;27.60
47845;DHT22;33605;48.822;8.796;2022-12-18T04:34:30;-6.40;27.60
47845;DHT22;33605;48.822;8.796;2022-12-18T04:36:56;-6.40;27.70
47845;DHT22;33605;48.822;8.796;2022-12-18T04:39:21;-6.40;27.70
47845;DHT22;33605;48.822;8.796;2022-12-18T04:41:47;-6.40;27.80
47845;DHT22;33605;48.822;8.796;2022-12-18T04:44:13;-6.40;27.90
47845;DHT22;33605;48.822;8.796;2022-12-18T04:46:38;-6.50;28.00
47845;DHT22;33605;48.822;8.796;2022-12-18T04:49:04;-6.50;28.10
47845;DHT22;33605;48.822;8.796;2022-12-18T04:51:30;-6.50;28.30
47845;DHT22;33605;48.822;8.796;2022-12-18T04:53:55;-6.50;28.50
47845;DHT22;33605;48.822;8.796;2022-12-18T04:56:21;-6.50;28.70
47845;DHT22;33605;48.822;8.796;2022-12-18T04:58:47;-6.50;28.80
47845;DHT22;33605;48.822;8.796;2022-12-18T05:01:14;-6.50;28.90
47845;DHT22;33605;48.822;8.796;2022-12-18T05:03:40;-6.50;29.00
47845;DHT22;33605;48.822;8.796;2022-12-18T05:06:07;-6.50;29.00
47845;DHT22;33605;48.822;8.796;2022-12-18T05:08:33;-6.50;29.10
47845;DHT22;33605;48.822;8.796;2022-12-18T05:11:10;-6.50;29.10
47845;DHT22;33605;48.822;8.796;2022-12-18T05:13:36;-6.50;29.20
47845;DHT22;33605;48.822;8.796;2022-12-18T05:16:03;-6.50;29.20
47845;DHT22;33605;48.822;8.796;2022-12-18T05:18:29;-6.50;29.30
47845;DHT22;33605;48.822;8.796;2022-12-18T05:20:55;-6.50;29.40
47845;DHT22;33605;48.822;8.796;2022-12-18T05:23:21;-6.50;29.50
47845;DHT22;33605;48.822;8.796;2022-12-18T05:25:58;-6.50;29.70
47845;DHT22;33605;48.822;8.796;2022-12-18T05:28:25;-6.50;29.90
47845;DHT22;33605;48.822;8.796;2022-12-18T05:30:53;-6.50;30.10
47845;DHT22;33605;48.822;8.796;2022-12-18T05:33:20;-6.50;30.50
47845;DHT22;33605;48.822;8.796;2022-12-18T05:35:54;-6.40;30.80
47845;DHT22;33605;48.822;8.796;2022-12-18T05:38:21;-6.40;31.40
47845;DHT22;33605;48.822;8.796;2022-12-18T05:40:50;-6.30;31.90
47845;DHT22;33605;48.822;8.796;2022-12-18T05:43:16;-6.30;32.40
47845;DHT22;33605;48.822;8.796;2022-12-18T05:45:43;-6.30;32.50
47845;DHT22;33605;48.822;8.796;2022-12-18T05:48:08;-6.20;33.40
47845;DHT22;33605;48.822;8.796;2022-12-18T05:50:38;-6.10;33.00
47845;DHT22;33605;48.822;8.796;2022-12-18T05:53:05;-6.10;33.10
47845;DHT22;33605;48.822;8.796;2022-12-18T05:55:39;-6.00;33.20
47845;DHT22;33605;48.822;8.796;2022-12-18T05:58:07;-5.90;33.60
47845;DHT22;33605;48.822;8.796;2022-12-18T06:00:34;-5.80;33.90
47845;DHT22;33605;48.822;8.796;2022-12-18T06:03:01;-5.70;34.20
47845;DHT22;33605;48.822;8.796;2022-12-18T06:05:27;-5.70;34.40
47845;DHT22;33605;48.822;8.796;2022-12-18T06:07:53;-5.60;34.60
47845;DHT22;33605;48.822;8.796;2022-12-18T06:10:19;-5.50;35.00
47845;DHT22;33605;48.822;8.796;2022-12-18T06:12:45;-5.40;35.50
47845;DHT22;33605;48.822;8.796;2022-12-18T06:15:10;-5.40;35.70
47845;DHT22;33605;48.822;8.796;2022-12-18T06:17:36;-5.30;36.20
47845;DHT22;33605;48.822;8.796;2022-12-18T06:20:03;-5.20;36.60
47845;DHT22;33605;48.822;8.796;2022-12-18T06:22:31;-5.10;37.10
47845;DHT22;33605;48.822;8.796;2022-12-18T06:24:57;-5.10;37.40
47845;DHT22;33605;48.822;8.796;2022-12-18T06:27:23;-5.00;37.60
47845;DHT22;33605;48.822;8.796;2022-12-18T06:29:48;-4.90;37.70
47845;DHT22;33605;48.822;8.796;2022-12-18T06:32:14;-4.80;37.90
47845;DHT22;33605;48.822;8.796;2022-12-18T06:34:40;-4.80;38.00
47845;DHT22;33605;48.822;8.796;2022-12-18T06:37:06;-4.70;38.20
47845;DHT22;33605;48.822;8.796;2022-12-18T06:39:32;-4.60;38.30
47845;DHT22;33605;48.822;8.796;2022-12-18T06:41:58;-4.60;38.30
47845;DHT22;33605;48.822;8.796;2022-12-18T06:44:23;-4.50;38.30
47845;DHT22;33605;48.822;8.796;2022-12-18T06:46:49;-4.40;38.40
47845;DHT22;33605;48.822;8.796;2022-12-18T06:49:14;-4.40;38.30
47845;DHT22;33605;48.822;8.796;2022-12-18T06:51:41;-4.30;38.30
47845;DHT22;33605;48.822;8.796;2022-12-18T06:54:08;-4.30;38.30
47845;DHT22;33605;48.822;8.796;2022-12-18T06:56:33;-4.20;38.20
47845;DHT22;33605;48.822;8.796;2022-12-18T06:58:59;-4.20;38.20
47845;DHT22;33605;48.822;8.796;2022-12-18T07:01:25;-4.20;38.10
47845;DHT22;33605;48.822;8.796;2022-12-18T07:03:55;-4.10;38.10
47845;DHT22;33605;48.822;8.796;2022-12-18T07:06:23;-4.10;38.20
47845;DHT22;33605;48.822;8.796;2022-12-18T07:08:50;-4.10;38.10
47845;DHT22;33605;48.822;8.796;2022-12-18T07:11:17;-4.10;38.20
47845;DHT22;33605;48.822;8.796;2022-12-18T07:13:43;-4.00;38.30
47845;DHT22;33605;48.822;8.796;2022-12-18T07:16:14;-4.00;38.30
47845;DHT22;33605;48.822;8.796;2022-12-18T07:18:40;-3.90;38.50
47845;DHT22;33605;48.822;8.796;2022-12-18T07:21:10;-3.90;38.60
47845;DHT22;33605;48.822;8.796;2022-12-18T07:23:36;-3.90;38.70
47845;DHT22;33605;48.822;8.796;2022-12-18T07:26:04;-3.90;39.10
47845;DHT22;33605;48.822;8.796;2022-12-18T07:28:31;-3.80;39.60
47845;DHT22;33605;48.822;8.796;2022-12-18T07:30:57;-3.80;39.80
47845;DHT22;33605;48.822;8.796;2022-12-18T07:33:22;-3.70;40.20
47845;DHT22;33605;48.822;8.796;2022-12-18T07:35:48;-3.70;41.10
47845;DHT22;33605;48.822;8.796;2022-12-18T07:38:14;-3.60;41.40
47845;DHT22;33605;48.822;8.796;2022-12-18T07:40:39;-3.50;41.50
47845;DHT22;33605;48.822;8.796;2022-12-18T07:43:05;-3.40;41.40
47845;DHT22;33605;48.822;8.796;2022-12-18T07:45:31;-3.30;41.20
47845;DHT22;33605;48.822;8.796;2022-12-18T07:47:59;-3.20;41.00
47845;DHT22;33605;48.822;8.796;2022-12-18T07:50:25;-3.10;40.80
47845;DHT22;33605;48.822;8.796;2022-12-18T07:52:50;-3.00;40.60
47845;DHT22;33605;48.822;8.796;2022-12-18T07:55:16;-3.00;40.50
47845;DHT22;33605;48.822;8.796;2022-12-18T07:57:42;-2.90;40.60
47845;DHT22;33605;48.822;8.796;2022-12-18T08:00:08;-2.80;41.10
47845;DHT22;33605;48.822;8.796;2022-12-18T08:02:34;-2.80;40.50
47845;DHT22;33605;48.822;8.796;2022-12-18T08:04:59;-2.70;40.60
47845;DHT22;33605;48.822;8.796;2022-12-18T08:07:25;-2.70;40.60
47845;DHT22;33605;48.822;8.796;2022-12-18T08:09:50;-2.60;40.70
47845;DHT22;33605;48.822;8.796;2022-12-18T08:12:16;-2.60;40.70
47845;DHT22;33605;48.822;8.796;2022-12-18T08:14:41;-2.50;40.80
47845;DHT22;33605;48.822;8.796;2022-12-18T08:17:07;-2.40;40.90
47845;DHT22;33605;48.822;8.796;2022-12-18T08:19:32;-2.40;40.80
47845;DHT22;33605;48.822;8.796;2022-12-18T08:21:58;-2.30;40.90
47845;DHT22;33605;48.822;8.796;2022-12-18T08:24:23;-2.30;41.00
47845;DHT22;33605;48.822;8.796;2022-12-18T08:26:49;-2.20;41.20
47845;DHT22;33605;48.822;8.796;2022-12-18T08:29:16;-2.10;41.30
47845;DHT22;33605;48.822;8.796;2022-12-18T08:31:41;-2.10;41.30
47845;DHT22;33605;48.822;8.796;2022-12-18T08:34:07;-2.00;41.50
47845;DHT22;33605;48.822;8.796;2022-12-18T08:36:33;-1.90;41.60
47845;DHT22;33605;48.822;8.796;2022-12-18T08:38:59;-1.90;41.60
47845;DHT22;33605;48.822;8.796;2022-12-18T08:41:25;-1.80;41.80
47845;DHT22;33605;48.822;8.796;2022-12-18T08:43:50;-1.70;42.00
47845;DHT22;33605;48.822;8.796;2022-12-18T08:46:39;-1.60;42.10
47845;DHT22;33605;48.822;8.796;2022-12-18T08:49:09;-1.50;42.30
47845;DHT22;33605;48.822;8.796;2022-12-18T08:51:39;-1.40;42.50
47845;DHT22;33605;48.822;8.796;2022-12-18T08:54:06;-1.30;43.40
47845;DHT22;33605;48.822;8.796;2022-12-18T08:56:31;-1.20;42.90
47845;DHT22;33605;48.822;8.796;2022-12-18T08:58:57;-1.10;42.90
47845;DHT22;33605;48.822;8.796;2022-12-18T09:01:23;-1.00;42.80
47845;DHT22;33605;48.822;8.796;2022-12-18T09:03:50;-0.90;42.80
47845;DHT22;33605;48.822;8.796;2022-12-18T09:06:17;-0.80;42.80
47845;DHT22;33605;48.822;8.796;2022-12-18T09:08:44;-0.70;42.90
47845;DHT22;33605;48.822;8.796;2022-12-18T09:11:21;-0.50;43.10
47845;DHT22;33605;48.822;8.796;2022-12-18T09:13:47;-0.40;42.90
47845;DHT22;33605;48.822;8.796;2022-12-18T09:16:13;-0.20;42.50
47845;DHT22;33605;48.822;8.796;2022-12-18T09:18:39;-0.10;42.40
47845;DHT22;33605;48.822;8.796;2022-12-18T09:21:22;0.00;42.40
47845;DHT22;33605;48.822;8.796;2022-12-18T09:23:49;0.20;42.10
47845;DHT22;33605;48.822;8.796;2022-12-18T09:26:15;0.40;41.90
47845;DHT22;33605;48.822;8.796;2022-12-18T09:28:41;0.50;41.70
47845;DHT22;33605;48.822;8.796;2022-12-18T09:31:08;0.60;41.50
47845;DHT22;33605;48.822;8.796;2022-12-18T09:33:35;0.70;41.20
47845;DHT22;33605;48.822;8.796;2022-12-18T09:36:05;0.90;41.20
47845;DHT22;33605;48.822;8.796;2022-12-18T09:38:32;1.00;41.10
47845;DHT22;33605;48.822;8.796;2022-12-18T09:41:03;1.10;40.90
47845;DHT22;33605;48.822;8.796;2022-12-18T09:43:37;1.30;40.50
47845;DHT22;33605;48.822;8.796;2022-12-18T09:46:09;1.40;40.20
47845;DHT22;33605;48.822;8.796;2022-12-18T09:48:48;1.40;40.00
47845;DHT22;33605;48.822;8.796;2022-12-18T09:51:28;1.50;39.90
47845;DHT22;33605;48.822;8.796;2022-12-18T09:54:07;1.60;39.70
47845;DHT22;33605;48.822;8.796;2022-12-18T09:56:40;1.70;39.70
47845;DHT22;33605;48.822;8.796;2022-12-18T10:01:51;1.90;39.50
47845;DHT22;33605;48.822;8.796;2022-12-18T10:04:17;2.00;39.20
47845;DHT22;33605;48.822;8.796;2022-12-18T10:06:57;2.10;39.10
47845;DHT22;33605;48.822;8.796;2022-12-18T10:09:53;2.20;39.00
47845;DHT22;33605;48.822;8.796;2022-12-18T10:12:32;2.30;39.20
47845;DHT22;33605;48.822;8.796;2022-12-18T10:15:16;2.50;39.60
47845;DHT22;33605;48.822;8.796;2022-12-18T10:17:51;2.70;39.60
47845;DHT22;33605;48.822;8.796;2022-12-18T10:20:27;2.90;39.60
47845;DHT22;33605;48.822;8.796;2022-12-18T10:25:45;3.50;39.20
47845;DHT22;33605;48.822;8.796;2022-12-18T10:28:16;4.00;38.90
47845;DHT22;33605;48.822;8.796;2022-12-18T10:30:43;4.40;38.60
47845;DHT22;33605;48.822;8.796;2022-12-18T10:33:16;5.00;38.20
47845;DHT22;33605;48.822;8.796;2022-12-18T10:43:44;5.60;37.90
47845;DHT22;33605;48.822;8.796;2022-12-18T10:51:06;7.50;31.00
47845;DHT22;33605;48.822;8.796;2022-12-18T10:53:34;7.40;30.80
47845;DHT22;33605;48.822;8.796;2022-12-18T10:56:03;7.30;30.50
47845;DHT22;33605;48.822;8.796;2022-12-18T10:58:34;7.10;30.00
47845;DHT22;33605;48.822;8.796;2022-12-18T11:01:13;6.80;30.20
47845;DHT22;33605;48.822;8.796;2022-12-18T11:03:44;6.70;30.50
47845;DHT22;33605;48.822;8.796;2022-12-18T11:06:20;6.50;30.60
47845;DHT22;33605;48.822;8.796;2022-12-18T11:09:05;6.40;31.00
47845;DHT22;33605;48.822;8.796;2022-12-18T11:11:32;6.40;31.20
47845;DHT22;33605;48.822;8.796;2022-12-18T11:14:02;6.40;31.20
47845;DHT22;33605;48.822;8.796;2022-12-18T11:16:30;6.50;31.40
47845;DHT22;33605;48.822;8.796;2022-12-18T11:21:42;6.80;31.50
47845;DHT22;33605;48.822;8.796;2022-12-18T11:26:46;7.30;31.70
47845;DHT22;33605;48.822;8.796;2022-12-18T11:29:17;7.60;31.90
47845;DHT22;33605;48.822;8.796;2022-12-18T12:30:08;10.30;26.90
47845;DHT22;33605;48.822;8.796;2022-12-18T12:32:54;10.20;26.80
47845;DHT22;33605;48.822;8.796;2022-12-18T12:35:58;10.00;26.80
47845;DHT22;33605;48.822;8.796;2022-12-18T12:38:30;9.90;27.70
47845;DHT22;33605;48.822;8.796;2022-12-18T12:41:03;9.70;27.80
47845;DHT22;33605;48.822;8.796;2022-12-18T12:43:41;9.60;27.90
47845;DHT22;33605;48.822;8.796;2022-12-18T12:46:12;9.50;28.00
47845;DHT22;33605;48.822;8.796;2022-12-18T12:48:58;9.40;28.30
47845;DHT22;33605;48.822;8.796;2022-12-18T12:51:30;9.20;28.30
47845;DHT22;33605;48.822;8.796;2022-12-18T12:53:58;9.10;28.30
47845;DHT22;33605;48.822;8.796;2022-12-18T12:56:32;9.20;28.50
47845;DHT22;33605;48.822;8.796;2022-12-18T12:59:16;9.20;28.60
47845;DHT22;33605;48.822;8.796;2022-12-18T13:04:53;9.40;28.60
47845;DHT22;33605;48.822;8.796;2022-12-18T13:10:52;9.70;28.70
47845;DHT22;33605;48.822;8.796;2022-12-18T13:13:05;9.80;28.60
47845;DHT22;33605;48.822;8.796;2022-12-18T13:15:49;9.90;28.40
47845;DHT22;33605;48.822;8.796;2022-12-18T13:18:28;10.00;27.40
47845;DHT22;33605;48.822;8.796;2022-12-18T13:25:52;9.90;27.90
47845;DHT22;33605;48.822;8.796;2022-12-18T13:34:20;9.60;27.80
47845;DHT22;33605;48.822;8.796;2022-12-18T13:36:47;9.50;27.70
47845;DHT22;33605;48.822;8.796;2022-12-18T13:41:51;9.20;27.70
47845;DHT22;33605;48.822;8.796;2022-12-18T13:44:31;9.00;27.70
47845;DHT22;33605;48.822;8.796;2022-12-18T13:46:59;8.80;27.80
47845;DHT22;33605;48.822;8.796;2022-12-18T13:49:41;8.70;28.10
47845;DHT22;33605;48.822;8.796;2022-12-18T13:52:23;8.60;28.20
47845;DHT22;33605;48.822;8.796;2022-12-18T13:54:55;8.50;28.30
47845;DHT22;33605;48.822;8.796;2022-12-18T13:57:38;8.40;28.40
47845;DHT22;33605;48.822;8.796;2022-12-18T14:00:26;8.30;28.40
47845;DHT22;33605;48.822;8.796;2022-12-18T14:02:54;8.20;28.40
47845;DHT22;33605;48.822;8.796;2022-12-18T14:07:53;8.00;28.40
47845;DHT22;33605;48.822;8.796;2022-12-18T14:10:20;7.90;28.40
47845;DHT22;33605;48.822;8.796;2022-12-18T14:12:50;7.80;28.50
47845;DHT22;33605;48.822;8.796;2022-12-18T14:15:33;7.70;28.60
47845;DHT22;33605;48.822;8.796;2022-12-18T14:18:01;7.50;28.60
47845;DHT22;33605;48.822;8.796;2022-12-18T14:20:31;7.40;28.70
47845;DHT22;33605;48.822;8.796;2022-12-18T14:22:57;7.30;28.80
47845;DHT22;33605;48.822;8.796;2022-12-18T14:25:25;7.20;28.90
47845;DHT22;33605;48.822;8.796;2022-12-18T14:28:13;7.00;28.80
47845;DHT22;33605;48.822;8.796;2022-12-18T14:30:37;6.80;28.80
47845;DHT22;33605;48.822;8.796;2022-12-18T14:35:32;6.40;28.90
47845;DHT22;33605;48.822;8.796;2022-12-18T14:40:46;6.00;29.30
47845;DHT22;33605;48.822;8.796;2022-12-18T14:43:13;5.90;29.30
47845;DHT22;33605;48.822;8.796;2022-12-18T14:45:39;5.70;29.40
47845;DHT22;33605;48.822;8.796;2022-12-18T14:48:17;5.60;29.70
47845;DHT22;33605;48.822;8.796;2022-12-18T14:50:44;5.40;29.80
47845;DHT22;33605;48.822;8.796;2022-12-18T14:53:37;5.30;30.00
47845;DHT22;33605;48.822;8.796;2022-12-18T14:56:15;5.10;30.10
47845;DHT22;33605;48.822;8.796;2022-12-18T14:58:58;5.00;30.20
47845;DHT22;33605;48.822;8.796;2022-12-18T15:01:37;4.80;30.30
47845;DHT22;33605;48.822;8.796;2022-12-18T15:04:05;4.70;30.60
47845;DHT22;33605;48.822;8.796;2022-12-18T15:06:36;4.60;30.70
47845;DHT22;33605;48.822;8.796;2022-12-18T15:09:22;4.40;30.80
47845;DHT22;33605;48.822;8.796;2022-12-18T15:11:47;4.30;31.10
47845;DHT22;33605;48.822;8.796;2022-12-18T15:14:40;4.20;31.30
47845;DHT22;33605;48.822;8.796;2022-12-18T15:17:21;4.10;31.40
47845;DHT22;33605;48.822;8.796;2022-12-18T15:19:49;3.90;31.50
47845;DHT22;33605;48.822;8.796;2022-12-18T15:22:29;3.80;31.60
47845;DHT22;33605;48.822;8.796;2022-12-18T15:24:57;3.70;31.90
47845;DHT22;33605;48.822;8.796;2022-12-18T15:27:30;3.50;31.90
47845;DHT22;33605;48.822;8.796;2022-12-18T15:32:25;3.30;32.90
47845;DHT22;33605;48.822;8.796;2022-12-18T15:35:03;3.20;32.60
47845;DHT22;33605;48.822;8.796;2022-12-18T15:37:29;3.10;32.80
47845;DHT22;33605;48.822;8.796;2022-12-18T15:39:54;3.00;32.80
47845;DHT22;33605;48.822;8.796;2022-12-18T15:42:20;3.00;33.10
47845;DHT22;33605;48.822;8.796;2022-12-18T15:45:04;2.80;33.10
47845;DHT22;33605;48.822;8.796;2022-12-18T15:47:30;2.80;33.30
47845;DHT22;33605;48.822;8.796;2022-12-18T15:49:56;2.70;33.50
47845;DHT22;33605;48.822;8.796;2022-12-18T15:52:22;2.60;33.60
47845;DHT22;33605;48.822;8.796;2022-12-18T15:54:51;2.50;33.80
47845;DHT22;33605;48.822;8.796;2022-12-18T15:57:35;2.40;33.80
47845;DHT22;33605;48.822;8.796;2022-12-18T16:00:01;2.40;34.10
47845;DHT22;33605;48.822;8.796;2022-12-18T16:02:27;2.30;34.20
47845;DHT22;33605;48.822;8.796;2022-12-18T16:04:53;2.30;34.50
47845;DHT22;33605;48.822;8.796;2022-12-18T16:07:19;2.20;34.50
47845;DHT22;33605;48.822;8.796;2022-12-18T16:09:45;2.20;34.70
47845;DHT22;33605;48.822;8.796;2022-12-18T16:12:19;2.00;34.70
47845;DHT22;33605;48.822;8.796;2022-12-18T16:14:46;2.10;35.10
47845;DHT22;33605;48.822;8.796;2022-12-18T16:17:12;2.00;35.30
47845;DHT22;33605;48.822;8.796;2022-12-18T16:19:38;2.00;35.50
47845;DHT22;33605;48.822;8.796;2022-12-18T16:22:04;2.00;35.70
47845;DHT22;33605;48.822;8.796;2022-12-18T16:24:32;1.90;35.70
47845;DHT22;33605;48.822;8.796;2022-12-18T16:26:59;1.90;36.00
47845;DHT22;33605;48.822;8.796;2022-12-18T16:29:27;1.90;36.10
47845;DHT22;33605;48.822;8.796;2022-12-18T16:32:00;1.90;36.20
47845;DHT22;33605;48.822;8.796;2022-12-18T16:34:30;1.90;36.40
47845;DHT22;33605;48.822;8.796;2022-12-18T16:37:01;1.80;36.40
47845;DHT22;33605;48.822;8.796;2022-12-18T16:39:27;1.80;36.60
47845;DHT22;33605;48.822;8.796;2022-12-18T16:41:53;1.80;36.70
47845;DHT22;33605;48.822;8.796;2022-12-18T16:44:19;1.80;36.80
47845;DHT22;33605;48.822;8.796;2022-12-18T16:46:45;1.80;37.00
47845;DHT22;33605;48.822;8.796;2022-12-18T16:49:12;1.80;37.00
47845;DHT22;33605;48.822;8.796;2022-12-18T16:51:38;1.80;37.20
47845;DHT22;33605;48.822;8.796;2022-12-18T16:54:04;1.80;37.30
47845;DHT22;33605;48.822;8.796;2022-12-18T16:56:30;1.80;37.40
47845;DHT22;33605;48.822;8.796;2022-12-18T16:58:57;1.80;37.50
47845;DHT22;33605;48.822;8.796;2022-12-18T17:01:24;1.80;37.60
47845;DHT22;33605;48.822;8.796;2022-12-18T17:03:54;1.80;37.80
47845;DHT22;33605;48.822;8.796;2022-12-18T17:06:21;1.80;37.90
47845;DHT22;33605;48.822;8.796;2022-12-18T17:08:53;1.80;38.00
47845;DHT22;33605;48.822;8.796;2022-12-18T17:11:19;1.70;38.00
47845;DHT22;33605;48.822;8.796;2022-12-18T17:13:44;1.80;38.10
47845;DHT22;33605;48.822;8.796;2022-12-18T17:16:10;1.80;38.20
47845;DHT22;33605;48.822;8.796;2022-12-18T17:18:36;1.80;38.30
47845;DHT22;33605;48.822;8.796;2022-12-18T17:21:04;1.80;38.40
47845;DHT22;33605;48.822;8.796;2022-12-18T17:23:30;1.80;38.40
47845;DHT22;33605;48.822;8.796;2022-12-18T17:25:59;1.80;38.70
47845;DHT22;33605;48.822;8.796;2022-12-18T17:28:26;1.70;38.60
47845;DHT22;33605;48.822;8.796;2022-12-18T17:30:53;1.70;38.70
47845;DHT22;33605;48.822;8.796;2022-12-18T17:33:18;1.70;38.80
47845;DHT22;33605;48.822;8.796;2022-12-18T17:35:44;1.70;38.90
47845;DHT22;33605;48.822;8.796;2022-12-18T17:38:10;1.70;39.10
47845;DHT22;33605;48.822;8.796;2022-12-18T17:40:36;1.60;39.00
47845;DHT22;33605;48.822;8.796;2022-12-18T17:43:02;1.60;39.10
47845;DHT22;33605;48.822;8.796;2022-12-18T17:45:27;1.60;39.20
47845;DHT22;33605;48.822;8.796;2022-12-18T17:47:53;1.60;39.30
47845;DHT22;33605;48.822;8.796;2022-12-18T17:50:18;1.60;39.40
47845;DHT22;33605;48.822;8.796;2022-12-18T17:52:44;1.60;39.60
47845;DHT22;33605;48.822;8.796;2022-12-18T17:55:10;1.60;39.80
47845;DHT22;33605;48.822;8.796;2022-12-18T17:57:35;1.60;40.00
47845;DHT22;33605;48.822;8.796;2022-12-18T18:00:05;1.50;40.70
47845;DHT22;33605;48.822;8.796;2022-12-18T18:02:31;1.60;40.30
47845;DHT22;33605;48.822;8.796;2022-12-18T18:04:56;1.50;40.40
47845;DHT22;33605;48.822;8.796;2022-12-18T18:07:22;1.50;40.60
47845;DHT22;33605;48.822;8.796;2022-12-18T18:09:48;1.50;40.70
47845;DHT22;33605;48.822;8.796;2022-12-18T18:12:13;1.50;41.00
47845;DHT22;33605;48.822;8.796;2022-12-18T18:14:57;1.50;41.20
47845;DHT22;33605;48.822;8.796;2022-12-18T18:17:23;1.50;41.20
47845;DHT22;33605;48.822;8.796;2022-12-18T18:19:48;1.50;41.30
47845;DHT22;33605;48.822;8.796;2022-12-18T18:22:14;1.50;41.50